Time;durP1;ratioP1;P1;durP2;ratioP2;P2;SDS_P1;SDS_P2;PMS_P1;PMS_P2;Temp;Humidity;BMP_temperature;BMP_pressure;BME280_temperature;BME280_humidity;BME280_pressure;Samples;Min_cycle;Max_cycle;Signal;HPM_P1;HPM_P2
2024/01/12 00:00:33;;;;;;;16.65;10.02;;;;;;;;;;5033401;28;20397;-81
2024/01/12 00:03:01;;;;;;;24.75;9.30;;;;;;;;;;5035164;28;20026;-81
2024/01/12 00:05:27;;;;;;;20.42;10.10;;;;;;;;;;5011698;28;20029;-81
2024/01/12 00:07:53;;;;;;;27.27;9.77;;;;;;;;;;5026299;28;20397;-81
2024/01/12 00:10:19;;;;;;;27.00;12.05;;;;;;;;;;5029602;28;20029;-81
2024/01/12 00:12:45;;;;;;;29.15;11.43;;;;;;;;;;5028247;28;20387;-81
2024/01/12 00:15:11;;;;;;;29.17;10.15;;;;;;;;;;5029577;28;20478;-81
2024/01/12 00:17:37;;;;;;;19.60;10.90;;;;;;;;;;5029254;28;20071;-81
2024/01/12 00:20:07;;;;;;;27.25;9.75;;;;;;;;;;5029467;28;20111;-81
2024/01/12 00:22:33;;;;;;;29.38;10.43;;;;;;;;;;5029604;28;20030;-81
2024/01/12 00:24:58;;;;;;;31.98;12.45;;;;;;;;;;5030572;28;20028;-81
2024/01/12 00:27:25;;;;;;;18.50;9.45;;;;;;;;;;5029579;28;20119;-81
2024/01/12 00:29:50;;;;;;;29.42;11.25;;;;;;;;;;5029842;28;20060;-81
2024/01/12 00:32:17;;;;;;;29.20;10.95;;;;;;;;;;5028983;28;20095;-81
2024/01/12 00:34:43;;;;;;;26.88;9.25;;;;;;;;;;5029130;28;20501;-81
2024/01/12 00:37:09;;;;;;;22.98;9.40;;;;;;;;;;5029205;28;20065;-81
2024/01/12 00:39:36;;;;;;;24.75;10.63;;;;;;;;;;5021656;28;20062;-81
2024/01/12 00:42:02;;;;;;;27.10;12.50;;;;;;;;;;5024692;28;20033;-81
2024/01/12 00:44:28;;;;;;;21.48;10.50;;;;;;;;;;5029134;28;20137;-81
2024/01/12 00:46:55;;;;;;;17.60;8.13;;;;;;;;;;5028514;28;20108;-82
2024/01/12 00:49:21;;;;;;;22.27;12.73;;;;;;;;;;5031698;28;20029;-81
2024/01/12 00:51:47;;;;;;;15.88;9.88;;;;;;;;;;5028673;28;20109;-81
2024/01/12 00:54:13;;;;;;;27.63;9.43;;;;;;;;;;5029117;28;20141;-81
2024/01/12 00:56:39;;;;;;;17.45;8.30;;;;;;;;;;5030159;28;20148;-81
2024/01/12 00:59:06;;;;;;;13.35;8.68;;;;;;;;;;5029899;28;20018;-81
2024/01/12 01:01:32;;;;;;;31.67;11.65;;;;;;;;;;5040976;28;20055;-81
2024/01/12 01:03:58;;;;;;;15.82;8.60;;;;;;;;;;5029188;28;20021;-81
2024/01/12 01:06:24;;;;;;;18.02;10.27;;;;;;;;;;5028941;28;20136;-81
2024/01/12 01:08:51;;;;;;;16.38;6.75;;;;;;;;;;5020423;28;20117;-81
2024/01/12 01:11:17;;;;;;;20.95;8.82;;;;;;;;;;5029156;28;20025;-81
2024/01/12 01:13:43;;;;;;;16.33;10.70;;;;;;;;;;5028875;28;20025;-81
2024/01/12 01:16:09;;;;;;;18.45;9.50;;;;;;;;;;5019915;28;20029;-81
2024/01/12 01:18:36;;;;;;;14.17;8.07;;;;;;;;;;5028755;28;20041;-81
2024/01/12 01:21:02;;;;;;;18.13;8.57;;;;;;;;;;5028538;28;20089;-81
2024/01/12 01:23:28;;;;;;;20.60;10.90;;;;;;;;;;5028901;28;20017;-80
2024/01/12 01:25:54;;;;;;;21.75;9.25;;;;;;;;;;5028753;28;20032;-81
2024/01/12 01:28:20;;;;;;;23.98;10.90;;;;;;;;;;5028476;28;20052;-81
2024/01/12 01:30:46;;;;;;;16.60;9.40;;;;;;;;;;5028041;28;20049;-81
2024/01/12 01:33:12;;;;;;;24.58;9.10;;;;;;;;;;5019644;28;20040;-81
2024/01/12 01:35:38;;;;;;;17.20;9.20;;;;;;;;;;5028337;28;20436;-82
2024/01/12 01:38:05;;;;;;;20.52;10.20;;;;;;;;;;5028478;28;20025;-81
2024/01/12 01:40:31;;;;;;;21.88;9.50;;;;;;;;;;5028717;28;20263;-81
2024/01/12 01:42:57;;;;;;;28.25;11.65;;;;;;;;;;5039079;28;20026;-81
2024/01/12 01:45:23;;;;;;;16.38;9.80;;;;;;;;;;5030653;28;20017;-81
2024/01/12 01:47:49;;;;;;;18.83;11.52;;;;;;;;;;5027681;28;20394;-81
2024/01/12 01:50:15;;;;;;;28.00;13.77;;;;;;;;;;5028281;28;20040;-81
2024/01/12 01:52:43;;;;;;;16.33;10.67;;;;;;;;;;5022930;28;20394;-81
2024/01/12 01:55:11;;;;;;;19.42;10.02;;;;;;;;;;5030342;28;20273;-81
2024/01/12 01:57:39;;;;;;;23.77;13.10;;;;;;;;;;5029162;28;20040;-81
2024/01/12 02:00:05;;;;;;;35.80;11.95;;;;;;;;;;5047821;28;20080;-81
2024/01/12 02:02:31;;;;;;;26.92;12.13;;;;;;;;;;5047119;28;20029;-81
2024/01/12 02:05:00;;;;;;;40.50;15.20;;;0.50;99.90;;;;;;5035636;28;20021;-80
2024/01/12 02:07:26;;;;;;;23.38;10.98;;;;;;;;;;5046224;28;20461;-81
2024/01/12 02:09:52;;;;;;;18.58;10.20;;;0.50;99.90;;;;;;5032623;28;20034;-81
2024/01/12 02:12:18;;;;;;;28.00;14.32;;;;;;;;;;5031565;28;20064;-81
2024/01/12 02:14:44;;;;;;;33.97;14.98;;;;;;;;;;5034409;28;20029;-81
2024/01/12 02:17:10;;;;;;;31.08;12.30;;;;;;;;;;5031548;28;20049;-81
2024/01/12 02:19:36;;;;;;;35.75;14.98;;;;;;;;;;5031792;28;20021;-81
2024/01/12 02:22:02;;;;;;;24.95;11.85;;;;;;;;;;5044762;28;20543;-83
2024/01/12 02:24:28;;;;;;;19.42;11.48;;;;;;;;;;5031600;28;20087;-82
2024/01/12 02:26:54;;;;;;;23.25;10.65;;;;;;;;;;5031634;28;20029;-80
2024/01/12 02:29:20;;;;;;;21.25;10.32;;;;;;;;;;5031836;28;20403;-82
2024/01/12 02:31:47;;;;;;;20.67;11.60;;;;;;;;;;5037827;28;20104;-81
2024/01/12 02:34:14;;;;;;;26.75;11.70;;;;;;;;;;5036762;28;20060;-81
2024/01/12 02:36:40;;;;;;;16.90;11.35;;;;;;;;;;5031548;28;20029;-82
2024/01/12 02:39:06;;;;;;;18.52;10.88;;;;;;;;;;5031592;28;20051;-81
2024/01/12 02:41:32;;;;;;;22.95;12.60;;;;;;;;;;5035270;28;20468;-81
2024/01/12 02:43:58;;;;;;;30.13;14.18;;;;;;;;;;5044063;28;20113;-82
2024/01/12 02:46:24;;;;;;;25.92;10.70;;;;;;;;;;5032298;28;20026;-81
2024/01/12 02:48:50;;;;;;;20.48;10.75;;;;;;;;;;5030862;28;20483;-81
2024/01/12 02:51:16;;;;;;;24.00;8.77;;;;;;;;;;5031375;28;20025;-81
2024/01/12 02:53:42;;;;;;;31.08;11.20;;;;;;;;;;5032051;28;20044;-81
2024/01/12 02:56:08;;;;;;;34.28;12.07;;;;;;;;;;5032194;28;20536;-81
2024/01/12 02:58:34;;;;;;;20.67;10.43;;;;;;;;;;5031101;28;20033;-81
2024/01/12 03:01:02;;;;;;;22.33;11.65;;;;;;;;;;5020767;28;20514;-81
2024/01/12 03:03:27;;;;;;;;;;;0.40;99.90;;;;;;5026898;28;20022;-82
2024/01/12 03:05:53;;;;;;;23.20;12.15;;;;;;;;;;5036907;28;19905;-81
2024/01/12 03:08:19;;;;;;;24.10;13.30;;;;;;;;;;5036542;28;20641;-82
2024/01/12 03:10:45;;;;;;;26.75;13.23;;;;;;;;;;5022708;28;20113;-81
2024/01/12 03:13:11;;;;;;;17.00;9.02;;;;;;;;;;5030781;28;20108;-81
2024/01/12 03:15:37;;;;;;;15.63;9.13;;;;;;;;;;5030545;28;20108;-81
2024/01/12 03:18:03;;;;;;;31.00;14.63;;;;;;;;;;5030721;28;20101;-81
2024/01/12 03:20:29;;;;;;;33.47;12.98;;;;;;;;;;5037453;28;20021;-82
2024/01/12 03:22:55;;;;;;;21.90;14.23;;;;;;;;;;5035646;28;20037;-81
2024/01/12 03:25:21;;;;;;;15.65;7.97;;;;;;;;;;5031870;28;20112;-82
2024/01/12 03:27:47;;;;;;;29.95;12.40;;;;;;;;;;5031516;28;20561;-81
2024/01/12 03:30:13;;;;;;;24.52;10.57;;;;;;;;;;5030773;28;20021;-82
2024/01/12 03:32:39;;;;;;;18.98;11.18;;;;;;;;;;5030548;28;20111;-82
2024/01/12 03:35:06;;;;;;;22.05;12.60;;;;;;;;;;5020225;28;20060;-82
2024/01/12 03:37:32;;;;;;;29.33;10.35;;;;;;;;;;5030866;28;20045;-82
2024/01/12 03:39:58;;;;;;;41.05;12.93;;;;;;;;;;5029814;28;20049;-82
2024/01/12 03:42:24;;;;;;;26.38;12.38;;;;;;;;;;5029919;28;20036;-82
2024/01/12 03:44:50;;;;;;;31.73;12.63;;;;;;;;;;5030180;28;20099;-82
2024/01/12 03:47:16;;;;;;;24.85;9.43;;;;;;;;;;5030639;28;20025;-82
2024/01/12 03:49:44;;;;;;;20.35;13.15;;;;;;;;;;5030727;28;20406;-82
2024/01/12 03:52:09;;;;;;;;;;;0.50;99.90;;;;;;5031892;28;20420;-81
2024/01/12 03:54:35;;;;;;;17.45;10.70;;;;;;;;;;5030586;28;19908;-81
2024/01/12 03:57:02;;;;;;;23.25;12.18;;;;;;;;;;5029493;28;20034;-82
2024/01/12 03:59:28;;;;;;;24.70;12.18;;;;;;;;;;5030069;28;20079;-81
2024/01/12 04:01:54;;;;;;;20.63;11.52;;;;;;;;;;5029805;28;20029;-82
2024/01/12 04:04:20;;;;;;;23.85;12.80;;;;;;;;;;5029755;28;20331;-81
2024/01/12 04:06:46;;;;;;;24.58;11.57;;;;;;;;;;5042564;28;20029;-82
2024/01/12 04:09:13;;;;;;;26.60;13.07;;;;;;;;;;5030200;28;20028;-82
2024/01/12 04:11:39;;;;;;;28.65;13.20;;;;;;;;;;5028976;28;20557;-82
2024/01/12 04:14:05;;;;;;;34.65;15.43;;;;;;;;;;5026865;28;20112;-81
2024/01/12 04:16:31;;;;;;;26.50;12.80;;;;;;;;;;5029690;28;20069;-81
2024/01/12 04:18:57;;;;;;;35.58;15.98;;;;;;;;;;5027104;28;20040;-82
2024/01/12 04:21:23;;;;;;;25.10;12.43;;;;;;;;;;5024900;28;21044;-81
2024/01/12 04:23:49;;;;;;;39.63;13.82;;;;;;;;;;5030211;28;20029;-82
2024/01/12 04:26:15;;;;;;;25.48;13.32;;;;;;;;;;5029533;28;20029;-81
2024/01/12 04:28:41;;;;;;;35.72;10.65;;;;;;;;;;5022299;28;20051;-82
2024/01/12 04:31:07;;;;;;;23.05;10.07;;;;;;;;;;5029310;28;20029;-82
2024/01/12 04:33:34;;;;;;;28.33;13.60;;;;;;;;;;5029461;28;20034;-82
2024/01/12 04:36:01;;;;;;;17.47;9.87;;;;;;;;;;5036677;28;20040;-82
2024/01/12 04:38:28;;;;;;;18.85;11.65;;;;;;;;;;5029031;28;20124;-82
2024/01/12 04:40:54;;;;;;;35.28;13.43;;;;;;;;;;5028946;28;20045;-82
2024/01/12 04:43:20;;;;;;;25.43;11.83;;;;;;;;;;5029147;28;20027;-82
2024/01/12 04:45:46;;;;;;;23.25;10.30;;;;;;;;;;5029395;28;20633;-82
2024/01/12 04:48:12;;;;;;;27.30;11.35;;;;;;;;;;5038054;28;20390;-80
2024/01/12 04:50:38;;;;;;;30.55;12.00;;;;;;;;;;5035119;28;20116;-82
2024/01/12 04:53:04;;;;;;;21.45;11.05;;;;;;;;;;5019354;28;20624;-81
2024/01/12 04:55:30;;;;;;;27.05;13.85;;;;;;;;;;5024355;28;20090;-82
2024/01/12 04:57:57;;;;;;;28.90;12.00;;;;;;;;;;5029222;28;20037;-82
2024/01/12 05:00:23;;;;;;;29.35;12.50;;;;;;;;;;5029047;28;20040;-82
2024/01/12 05:02:49;;;;;;;25.55;11.48;;;;;;;;;;5029127;28;20033;-82
2024/01/12 05:05:15;;;;;;;20.38;10.88;;;;;;;;;;5025941;28;20028;-81
2024/01/12 05:07:41;;;;;;;26.52;11.45;;;;;;;;;;5039807;28;20108;-81
2024/01/12 05:10:07;;;;;;;35.08;13.02;;;;;;;;;;5028411;28;20486;-82
2024/01/12 05:12:34;;;;;;;19.08;9.00;;;;;;;;;;5028821;28;20557;-82
2024/01/12 05:15:01;;;;;;;29.52;10.18;;;;;;;;;;5038163;28;20518;-82
2024/01/12 05:17:27;;;;;;;27.83;8.68;;;;;;;;;;5023940;28;20076;-82
2024/01/12 05:19:53;;;;;;;37.63;14.15;;;;;;;;;;5024900;28;20030;-81
2024/01/12 05:22:19;;;;;;;24.98;11.10;;;;;;;;;;5029905;28;20454;-82
2024/01/12 05:24:46;;;;;;;21.83;12.05;;;;;;;;;;5029207;28;20112;-82
2024/01/12 05:27:12;;;;;;;23.05;11.07;;;;;;;;;;5019192;28;20025;-82
2024/01/12 05:29:38;;;;;;;18.25;11.05;;;;;;;;;;5031577;28;20092;-82
2024/01/12 05:32:04;;;;;;;23.00;12.60;;;;;;;;;;5032948;28;20028;-82
2024/01/12 05:34:30;;;;;;;24.00;12.50;;;;;;;;;;5032961;28;20025;-81
2024/01/12 05:36:56;;;;;;;28.73;12.55;;;;;;;;;;5032574;28;20069;-82
2024/01/12 05:39:22;;;;;;;26.20;10.90;;;;;;;;;;5032422;28;20481;-82
2024/01/12 05:41:48;;;;;;;27.63;14.20;;;;;;;;;;5032383;28;20083;-81
2024/01/12 05:44:14;;;;;;;25.73;11.18;;;;;;;;;;5014999;28;20028;-82
2024/01/12 05:46:41;;;;;;;29.70;12.15;;;;;;;;;;5032536;28;20250;-82
2024/01/12 05:49:07;;;;;;;33.47;12.38;;;;;;;;;;5031799;28;20033;-82
2024/01/12 05:51:33;;;;;;;24.90;11.02;;;;;;;;;;5034773;28;20044;-82
2024/01/12 05:53:59;;;;;;;27.45;11.52;;;;;;;;;;5032508;28;20023;-82
2024/01/12 05:56:25;;;;;;;25.30;11.43;;;;;;;;;;5034159;28;20037;-82
2024/01/12 05:58:51;;;;;;;28.52;10.82;;;;;;;;;;5032573;28;20060;-82
2024/01/12 06:01:18;;;;;;;27.00;13.83;;;;;;;;;;5032631;28;20013;-82
2024/01/12 06:03:47;;;;;;;17.95;11.55;;;;;;;;;;5032294;28;20034;-82
2024/01/12 06:06:13;;;;;;;41.47;13.38;;;;;;;;;;5040967;28;20579;-82
2024/01/12 06:08:39;;;;;;;22.92;12.38;;;;;;;;;;5023225;28;20049;-81
2024/01/12 06:11:05;;;;;;;32.60;13.68;;;;;;;;;;5031602;28;20048;-81
2024/01/12 06:13:31;;;;;;;33.97;12.53;;;;;;;;;;5031157;28;20036;-82
2024/01/12 06:15:57;;;;;;;24.88;10.55;;;;;;;;;;5031778;28;20268;-82
2024/01/12 06:18:23;;;;;;;18.88;11.45;;;;;;;;;;5031655;28;20031;-82
2024/01/12 06:20:49;;;;;;;29.52;12.35;;;;;;;;;;5031497;28;20021;-82
2024/01/12 06:23:15;;;;;;;22.20;14.05;;;;;;;;;;5030969;28;20026;-82
2024/01/12 06:25:41;;;;;;;34.63;16.10;;;;;;;;;;5030353;28;20025;-80
2024/01/12 06:28:07;;;;;;;34.30;14.15;;;;;;;;;;5044444;28;20425;-82
2024/01/12 06:30:33;;;;;;;28.55;13.07;;;;;;;;;;5032540;28;20038;-82
2024/01/12 06:33:00;;;;;;;26.85;13.18;;;;;;;;;;5029509;28;20022;-82
2024/01/12 06:35:26;;;;;;;33.22;13.98;;;;;;;;;;5025106;28;20038;-81
2024/01/12 06:37:52;;;;;;;42.92;16.92;;;;;;;;;;5027250;28;20397;-82
2024/01/12 06:40:18;;;;;;;25.40;14.60;;;;;;;;;;5028948;28;20045;-82
2024/01/12 06:42:44;;;;;;;22.05;12.40;;;;;;;;;;5040189;28;20040;-81
2024/01/12 06:45:13;;;;;;;21.48;11.82;;;;;;;;;;5027841;28;20036;-81
2024/01/12 06:47:40;;;;;;;22.70;12.00;;;;;;;;;;5029153;28;20033;-82
2024/01/12 06:50:06;;;;;;;34.60;15.88;;;;;;;;;;5039332;28;20025;-82
2024/01/12 06:52:32;;;;;;;29.70;14.35;;;;;;;;;;5030048;28;20128;-81
2024/01/12 06:54:58;;;;;;;23.35;12.65;;;;;;;;;;5030254;28;20036;-79
2024/01/12 06:57:24;;;;;;;18.05;11.48;;;;;;;;;;5029611;28;20041;-77
2024/01/12 06:59:50;;;;;;;21.92;11.20;;;;;;;;;;5016081;28;20038;-77
2024/01/12 07:02:18;;;;;;;21.52;12.48;;;0.10;99.90;;;;;;5028807;28;20753;-77
2024/01/12 07:04:44;;;;;;;25.73;14.18;;;;;;;;;;5030591;28;20021;-77
2024/01/12 07:07:12;;;;;;;37.22;14.18;;;0.40;99.90;;;;;;5028056;28;20036;-77
2024/01/12 07:09:39;;;;;;;28.63;13.57;;;0.40;99.90;;;;;;5029229;28;20064;-77
2024/01/12 07:12:05;;;;;;;25.92;12.05;;;;;;;;;;5028646;28;20489;-77
2024/01/12 07:14:31;;;;;;;33.85;14.05;;;;;;;;;;5028897;28;20041;-77
2024/01/12 07:16:57;;;;;;;26.65;11.85;;;;;;;;;;5029248;28;20041;-77
2024/01/12 07:19:23;;;;;;;39.58;14.07;;;;;;;;;;5020724;28;20486;-77
2024/01/12 07:21:49;;;;;;;39.22;16.65;;;;;;;;;;5027817;28;20075;-77
2024/01/12 07:24:15;;;;;;;24.55;10.88;;;;;;;;;;5027740;28;20022;-77
2024/01/12 07:26:41;;;;;;;22.88;12.55;;;;;;;;;;5028479;28;20029;-74
2024/01/12 07:29:07;;;;;;;29.00;14.07;;;0.80;99.90;;;;;;5020455;28;20138;-76
2024/01/12 07:31:35;;;;;;;21.08;13.48;;;;;;;;;;4984264;28;20052;-77
2024/01/12 07:34:02;;;;;;;25.42;12.20;;;-2.50;99.90;;;;;;4990807;28;20033;-77
2024/01/12 07:36:28;;;;;;;32.85;15.65;;;;;;;;;;4988237;28;20027;-76
2024/01/12 07:38:57;;;;;;;22.60;11.68;;;0.10;99.90;;;;;;4990368;28;20066;-78
2024/01/12 07:41:23;;;;;;;33.88;15.13;;;;;;;;;;4985022;28;20450;-78
2024/01/12 07:43:49;;;;;;;23.63;16.45;;;;;;;;;;4986162;28;20267;-78
2024/01/12 07:46:20;;;;;;;25.75;11.90;;;0.00;99.90;;;;;;4993007;28;20022;-78
2024/01/12 07:48:50;;;;;;;40.05;14.80;;;-0.10;99.90;;;;;;4984871;28;20066;-78
2024/01/12 07:51:16;;;;;;;35.03;13.48;;;0.10;99.90;;;;;;4986195;28;20030;-78
2024/01/12 07:53:43;;;;;;;40.50;18.10;;;-0.10;99.90;;;;;;4987238;28;20087;-77
2024/01/12 07:56:09;;;;;;;26.77;14.07;;;;;;;;;;4989311;28;20023;-77
2024/01/12 07:58:35;;;;;;;23.67;12.82;;;;;;;;;;4983480;28;20392;-77
2024/01/12 08:01:01;;;;;;;33.17;13.52;;;;;;;;;;4984924;28;20018;-76
2024/01/12 08:03:27;;;;;;;34.47;13.23;;;;;;;;;;4987768;28;20113;-77
2024/01/12 08:05:53;;;;;;;37.70;10.68;;;0.20;99.90;;;;;;4993747;28;20109;-80
2024/01/12 08:08:19;;;;;;;31.23;14.73;;;0.20;99.90;;;;;;4989418;28;20472;-81
2024/01/12 08:10:46;;;;;;;25.58;12.43;;;;;;;;;;4984247;28;20058;-74
2024/01/12 08:13:12;;;;;;;35.47;13.73;;;;;;;;;;4987018;28;20029;-75
2024/01/12 08:15:38;;;;;;;34.30;11.88;;;0.30;99.90;;;;;;4987177;28;20706;-75
2024/01/12 08:18:04;;;;;;;30.13;12.73;;;;;;;;;;4985697;28;20046;-75
2024/01/12 08:20:30;;;;;;;33.88;14.02;;;;;;;;;;4982940;28;20563;-75
2024/01/12 08:22:56;;;;;;;27.98;12.82;;;;;;;;;;4983940;28;20383;-75
2024/01/12 08:25:23;;;;;;;16.30;10.40;;;;;;;;;;4988211;28;20030;-78
2024/01/12 08:27:49;;;;;;;22.92;9.85;;;;;;;;;;4989040;28;20023;-79
2024/01/12 08:30:15;;;;;;;29.13;13.55;;;;;;;;;;4988529;28;20026;-78
2024/01/12 08:32:41;;;;;;;26.98;11.75;;;0.50;99.90;;;;;;4988345;28;20419;-77
2024/01/12 08:35:07;;;;;;;34.58;12.30;;;0.40;99.90;;;;;;4978042;28;20017;-76
2024/01/12 08:37:33;;;;;;;28.27;13.15;;;;;;;;;;4993379;28;20042;-84
2024/01/12 08:39:59;;;;;;;32.38;13.43;;;;;;;;;;4986856;28;20039;-82
2024/01/12 08:42:25;;;;;;;26.70;12.57;;;;;;;;;;4988810;28;20169;-84
2024/01/12 08:44:51;;;;;;;31.35;13.52;;;0.50;99.90;;;;;;4994993;28;20026;-82
2024/01/12 08:47:19;;;;;;;20.40;12.02;;;;;;;;;;4992553;28;20030;-85
2024/01/12 08:49:45;;;;;;;;;;;0.60;99.90;;;;;;4986914;28;20411;-79
2024/01/12 08:52:11;;;;;;;21.30;12.98;;;;;;;;;;4986689;28;19963;-80
2024/01/12 08:54:37;;;;;;;22.90;11.13;;;;;;;;;;4998404;28;20030;-76
2024/01/12 08:57:03;;;;;;;24.48;12.48;;;;;;;;;;4991109;28;20046;-77
2024/01/12 08:59:29;;;;;;;24.73;13.18;;;;;;;;;;4985271;28;20018;-77
2024/01/12 09:01:56;;;;;;;29.80;13.25;;;;;;;;;;4987185;28;20499;-74
2024/01/12 09:04:23;;;;;;;;;;;0.70;99.90;;;;;;4985558;28;20084;-73
2024/01/12 09:06:49;;;;;;;21.45;11.40;;;;;;;;;;4990832;28;20406;-76
2024/01/12 09:09:15;;;;;;;30.33;12.30;;;;;;;;;;4990017;28;20146;-78
2024/01/12 09:11:41;;;;;;;19.55;11.57;;;;;;;;;;4988159;28;20024;-79
2024/01/12 09:14:07;;;;;;;29.60;12.43;;;;;;;;;;4984220;28;20034;-80
2024/01/12 09:16:33;;;;;;;19.92;9.20;;;;;;;;;;4983074;28;20314;-82
2024/01/12 09:18:59;;;;;;;21.10;9.50;;;;;;;;;;4985537;28;20030;-80
2024/01/12 09:21:25;;;;;;;24.05;11.45;;;;;;;;;;4986849;28;20024;-76
2024/01/12 09:23:51;;;;;;;20.98;10.43;;;;;;;;;;4986226;28;20033;-81
2024/01/12 09:26:17;;;;;;;28.55;12.32;;;;;;;;;;4987370;28;20026;-82
2024/01/12 09:28:43;;;;;;;31.30;10.38;;;;;;;;;;4985641;28;20041;-82
2024/01/12 09:31:09;;;;;;;30.48;9.98;;;;;;;;;;4986525;28;20372;-80
2024/01/12 09:33:35;;;;;;;33.45;14.77;;;;;;;;;;4989419;28;20501;-80
2024/01/12 09:36:04;;;;;;;32.75;13.25;;;;;;;;;;4980364;28;20027;-84
2024/01/12 09:38:30;;;;;;;31.58;12.77;;;;;;;;;;4993966;28;20054;-83
2024/01/12 09:40:58;;;;;;;20.67;10.88;;;;;;;;;;4997870;28;20380;-81
2024/01/12 09:43:28;;;;;;;19.90;10.32;;;1.80;99.90;;;;;;4981372;28;20053;-78
2024/01/12 09:46:02;;;;;;;29.63;12.43;;;1.70;99.90;;;;;;4984592;28;20053;-82
2024/01/12 09:48:28;;;;;;;29.52;12.35;;;2.20;99.90;;;;;;4995003;28;20137;-73
2024/01/12 09:50:58;;;;;;;30.73;12.05;;;;;;;;;;4988792;28;20100;-73
2024/01/12 09:53:24;;;;;;;29.27;14.48;;;;;;;;;;4986667;28;20396;-75
2024/01/12 09:55:50;;;;;;;24.42;12.43;;;;;;;;;;4978936;28;21266;-72
2024/01/12 09:58:18;;;;;;;30.80;10.85;;;1.40;97.50;;;;;;4989782;28;20041;-79
2024/01/12 10:00:47;;;;;;;31.65;15.98;;;1.40;98.50;;;;;;4987965;28;20093;-77
2024/01/12 10:03:13;;;;;;;27.58;12.73;;;1.30;99.90;;;;;;4991650;28;20030;-75
2024/01/12 10:05:41;;;;;;;35.55;9.93;;;;;;;;;;4987685;28;20026;-75
2024/01/12 10:08:07;;;;;;;;;;;5.40;99.40;;;;;;4992801;28;20026;-82
2024/01/12 10:10:33;;;;;;;33.63;10.77;;;;;;;;;;4995806;28;19963;-75
2024/01/12 10:12:59;;;;;;;23.33;10.27;;;;;;;;;;4992375;28;20027;-78
2024/01/12 10:15:26;;;;;;;23.90;11.85;;;;;;;;;;4980296;28;20030;-76
2024/01/12 10:17:52;;;;;;;30.38;14.27;;;;;;;;;;4996296;28;20084;-77
2024/01/12 10:20:20;;;;;;;30.27;9.43;;;;;;;;;;5000607;28;20029;-78
2024/01/12 10:22:57;;;;;;;24.30;9.60;;;1.50;99.90;;;;;;4995700;28;20034;-80
2024/01/12 10:25:23;;;;;;;32.60;12.57;;;;;;;;;;5001314;28;20029;-79
2024/01/12 10:27:56;;;;;;;24.55;11.90;;;1.90;95.90;;;;;;4990465;28;20045;-77
2024/01/12 10:30:22;;;;;;;23.35;9.13;;;;;;;;;;4981104;28;20041;-78
2024/01/12 10:32:51;;;;;;;25.20;9.60;;;1.90;94.10;;;;;;4993826;28;20721;-75
2024/01/12 10:35:20;;;;;;;17.67;6.93;;;1.90;95.30;;;;;;4983604;28;20066;-76
2024/01/12 10:37:47;;;;;;;21.13;10.20;;;;;;;;;;4990591;28;20138;-77
2024/01/12 10:40:14;;;;;;;17.92;10.27;;;2.00;95.30;;;;;;4991740;28;20034;-86
2024/01/12 10:42:42;;;;;;;;;;;2.30;94.10;;;;;;4990604;28;20068;-77
2024/01/12 10:45:11;;;;;;;12.82;8.55;;;1.80;93.50;;;;;;4990524;28;19909;-80
2024/01/12 10:47:39;;;;;;;22.48;8.20;;;1.90;94.50;;;;;;4997510;28;20049;-83
2024/01/12 10:50:08;;;;;;;31.20;10.30;;;1.80;93.40;;;;;;4990341;28;20061;-75
2024/01/12 10:53:05;;;;;;;27.00;9.57;;;1.80;94.00;;;;;;5000886;28;20034;-74
2024/01/12 10:55:34;;;;;;;27.52;9.60;;;;;;;;;;4958785;28;20142;-75
2024/01/12 10:58:03;;;;;;;25.83;10.20;;;;;;;;;;4967819;28;20265;-75
2024/01/12 11:00:32;;;;;;;24.85;10.57;;;;;;;;;;4965504;28;20074;-75
2024/01/12 11:03:00;;;;;;;13.52;7.72;;;1.60;92.80;;;;;;4971081;28;20030;-74
2024/01/12 11:05:28;;;;;;;24.08;9.48;;;1.60;92.20;;;;;;4960681;28;20093;-75
2024/01/12 11:07:57;;;;;;;28.13;8.50;;;;;;;;;;4971962;28;20158;-75
2024/01/12 11:10:24;;;;;;;32.10;13.23;;;;;;;;;;4966572;28;20040;-75
2024/01/12 11:12:52;;;;;;;31.70;10.18;;;;;;;;;;4966431;28;20528;-75
2024/01/12 11:15:18;;;;;;;24.55;9.98;;;;;;;;;;4964618;28;20030;-74
2024/01/12 11:17:44;;;;;;;29.75;13.07;;;;;;;;;;4971858;28;20038;-75
2024/01/12 11:20:19;;;;;;;31.65;9.48;;;1.80;92.00;;;;;;4979569;28;20081;-75
2024/01/12 11:22:46;;;;;;;26.92;9.90;;;;;;;;;;4966876;28;20428;-74
2024/01/12 11:25:13;;;;;;;24.35;12.13;;;;;;;;;;4963969;28;20049;-75
2024/01/12 11:27:45;;;;;;;29.30;11.85;;;1.60;89.00;;;;;;4964706;28;20042;-75
2024/01/12 11:30:12;;;;;;;22.15;9.60;;;;;;;;;;4966418;28;20486;-75
2024/01/12 11:32:38;;;;;;;39.33;12.23;;;;;;;;;;4984057;28;20174;-75
2024/01/12 11:35:10;;;;;;;31.17;10.50;;;;;;;;;;4986366;28;20109;-75
2024/01/12 11:37:37;;;;;;;32.28;10.00;;;;;;;;;;4992605;28;20089;-74
2024/01/12 11:40:09;;;;;;;27.98;10.23;;;;;;;;;;4994405;28;20088;-74
2024/01/12 11:42:35;;;;;;;21.98;9.90;;;;;;;;;;4991498;28;20129;-75
2024/01/12 11:45:02;;;;;;;31.40;11.67;;;;;;;;;;4983869;28;20466;-75
2024/01/12 11:47:31;;;;;;;20.75;10.27;;;;;;;;;;4987386;28;20827;-75
2024/01/12 11:49:57;;;;;;;35.58;15.43;;;;;;;;;;4989419;28;20034;-74
2024/01/12 11:52:23;;;;;;;28.55;10.70;;;;;;;;;;4995424;28;20498;-75
2024/01/12 11:54:49;;;;;;;30.48;13.30;;;;;;;;;;4988776;28;20077;-78
2024/01/12 11:57:16;;;;;;;27.88;12.88;;;;;;;;;;4999552;28;20429;-80
2024/01/12 11:59:42;;;;;;;33.72;14.55;;;;;;;;;;4990670;28;20093;-81
2024/01/12 12:02:10;;;;;;;40.15;14.70;;;1.60;90.80;;;;;;4992591;28;20026;-78
2024/01/12 12:04:36;;;;;;;26.90;10.88;;;;;;;;;;4983631;28;20030;-79
2024/01/12 12:07:02;;;;;;;25.77;13.60;;;;;;;;;;4994007;28;20037;-81
2024/01/12 12:09:28;;;;;;;32.05;14.35;;;;;;;;;;4997756;28;20033;-81
2024/01/12 12:11:53;;;;;;;27.98;12.02;;;;;;;;;;4987387;28;20054;-81
2024/01/12 12:14:19;;;;;;;29.05;11.82;;;;;;;;;;4986086;28;21165;-81
2024/01/12 12:16:45;;;;;;;37.53;15.35;;;;;;;;;;4994949;28;20033;-82
2024/01/12 12:19:11;;;;;;;30.20;13.48;;;;;;;;;;4986960;28;20105;-79
2024/01/12 12:21:37;;;;;;;28.27;12.10;;;;;;;;;;4987510;28;20022;-77
2024/01/12 12:24:04;;;;;;;30.02;12.95;;;;;;;;;;4987102;28;20026;-73
2024/01/12 12:26:31;;;;;;;33.75;14.38;;;;;;;;;;4991003;28;20050;-73
2024/01/12 12:28:58;;;;;;;31.05;10.65;;;1.60;92.70;;;;;;4993568;28;20438;-75
2024/01/12 12:31:27;;;;;;;34.40;10.77;;;1.60;91.50;;;;;;4999185;28;20539;-75
2024/01/12 12:33:53;;;;;;;23.98;11.45;;;;;;;;;;4993544;28;20018;-76
2024/01/12 12:36:19;;;;;;;29.30;12.77;;;;;;;;;;4990786;28;20084;-80
2024/01/12 12:38:45;;;;;;;25.30;12.57;;;;;;;;;;4993416;28;20128;-79
2024/01/12 12:41:11;;;;;;;41.45;18.48;;;;;;;;;;4989469;28;20125;-81
2024/01/12 12:43:37;;;;;;;30.08;13.35;;;1.90;91.70;;;;;;4988705;28;20022;-81
2024/01/12 12:46:04;;;;;;;30.95;13.27;;;2.00;91.90;;;;;;4991775;28;20033;-79
2024/01/12 12:48:30;;;;;;;28.42;12.48;;;;;;;;;;4988449;28;20033;-79
2024/01/12 12:50:56;;;;;;;30.58;11.13;;;2.30;97.30;;;;;;4988595;28;20072;-78
2024/01/12 12:53:22;;;;;;;30.83;12.73;;;;;;;;;;4996608;28;20042;-78
2024/01/12 12:55:49;;;;;;;27.70;12.80;;;;;;;;;;4992920;28;20625;-76
2024/01/12 12:58:16;;;;;;;39.50;13.35;;;;;;;;;;4996735;28;20057;-77
2024/01/12 13:00:42;;;;;;;34.10;14.90;;;;;;;;;;4987890;28;20049;-79
2024/01/12 13:03:08;;;;;;;33.30;13.05;;;;;;;;;;4983819;28;20022;-78
2024/01/12 13:05:38;;;;;;;38.55;15.10;;;2.10;99.90;;;;;;4979530;28;20022;-78
2024/01/12 13:08:07;;;;;;;31.58;14.23;;;2.00;99.90;;;;;;4983756;28;20049;-75
2024/01/12 13:10:34;;;;;;;30.08;10.75;;;1.90;96.10;;;;;;4986271;28;20034;-78
2024/01/12 13:13:00;;;;;;;32.42;12.48;;;2.00;99.90;;;;;;4985945;28;20565;-77
2024/01/12 13:15:26;;;;;;;41.40;15.10;;;;;;;;;;4984248;28;20061;-76
2024/01/12 13:17:52;;;;;;;31.90;11.77;;;;;;;;;;4988605;28;20041;-76
2024/01/12 13:20:18;;;;;;;27.40;12.07;;;;;;;;;;4987117;28;20084;-76
2024/01/12 13:22:44;;;;;;;46.20;16.10;;;;;;;;;;4989128;28;20042;-76
2024/01/12 13:25:11;;;;;;;29.67;11.40;;;;;;;;;;4982016;28;20027;-77
2024/01/12 13:27:37;;;;;;;23.50;10.30;;;;;;;;;;4986860;28;20034;-77
2024/01/12 13:30:04;;;;;;;32.22;12.40;;;;;;;;;;4986049;28;20034;-79
2024/01/12 13:32:31;;;;;;;23.87;10.53;;;;;;;;;;4985347;28;20038;-84
2024/01/12 13:34:57;;;;;;;28.00;14.43;;;;;;;;;;4983742;28;20265;-82
2024/01/12 13:37:23;;;;;;;33.67;13.53;;;;;;;;;;4990411;28;20120;-81
2024/01/12 13:39:49;;;;;;;35.08;14.68;;;2.40;94.00;;;;;;4986450;28;20404;-77
2024/01/12 13:42:15;;;;;;;35.97;12.93;;;;;;;;;;4987153;28;20038;-76
2024/01/12 13:44:42;;;;;;;26.60;12.02;;;;;;;;;;4990710;28;20494;-76
2024/01/12 13:47:08;;;;;;;30.80;14.70;;;;;;;;;;4992868;28;20506;-75
2024/01/12 13:49:34;;;;;;;24.95;11.07;;;;;;;;;;4995487;28;20085;-74
2024/01/12 13:52:00;;;;;;;28.67;12.27;;;;;;;;;;4993562;28;20030;-74
2024/01/12 13:54:26;;;;;;;32.70;14.07;;;2.50;97.60;;;;;;4987470;28;20495;-83
2024/01/12 13:56:52;;;;;;;31.38;12.25;;;3.10;90.00;;;;;;4997014;28;20042;-80
2024/01/12 13:59:18;;;;;;;25.00;12.52;;;;;;;;;;4993365;28;20040;-82